createdAt,value
2019-05-21T04:34:26.425Z,64.6
2019-05-21T04:35:28.295Z,67.7
2019-05-21T04:36:30.162Z,67.5
2019-05-21T04:37:32.034Z,70.4
2019-05-21T04:38:33.898Z,66
2019-05-21T04:39:35.771Z,61.4
2019-05-21T04:40:37.640Z,60.6
2019-05-21T04:41:39.514Z,69.7
2019-05-21T04:42:41.407Z,72.6
2019-05-21T04:43:43.291Z,74.1
2019-05-21T04:44:45.171Z,71
2019-05-21T04:45:47.044Z,72
2019-05-21T04:46:48.918Z,69.5
2019-05-21T04:47:50.514Z,74
2019-05-21T04:48:52.380Z,69.9
2019-05-21T04:49:54.251Z,68.8
2019-05-21T04:50:56.123Z,68.7
2019-05-21T04:51:57.995Z,66.5
2019-05-21T04:52:59.869Z,72.5
2019-05-21T04:54:01.465Z,72.6
2019-05-21T04:55:03.335Z,71.2
2019-05-21T04:56:05.209Z,74.8
2019-05-21T04:57:07.086Z,76.6
2019-05-21T04:58:08.955Z,73.3
2019-05-21T04:59:11.079Z,77.7
2019-05-21T05:00:12.953Z,83.9
2019-05-21T05:01:14.562Z,84
2019-05-21T05:02:16.429Z,81.3
2019-05-21T05:03:18.306Z,81
2019-05-21T05:04:23.062Z,79.3
2019-05-21T05:05:24.654Z,85.4
2019-05-21T05:06:26.236Z,78.9
2019-05-21T05:07:29.603Z,82.3
2019-05-21T05:08:31.468Z,82.2
2019-05-21T05:09:33.362Z,84.9
2019-05-21T05:10:35.235Z,86.3
2019-05-21T05:11:37.105Z,85.7
2019-05-21T05:12:38.993Z,80.6
2019-05-21T05:13:40.577Z,83
2019-05-21T05:14:42.454Z,87
2019-05-21T05:15:44.318Z,86.4
2019-05-21T05:16:46.187Z,85.9
2019-05-21T05:17:48.057Z,83.2
2019-05-21T05:18:49.933Z,82.2
2019-05-21T05:19:51.801Z,83.9
2019-05-21T05:20:53.671Z,91.7
2019-05-21T05:21:55.563Z,82.7
2019-05-21T05:22:57.413Z,80.2
2019-05-21T05:23:59.300Z,77.2
2019-05-21T05:25:01.231Z,76.2
2019-05-21T05:26:03.239Z,73.5
2019-05-21T05:27:05.412Z,73.4
2019-05-21T05:28:07.288Z,78.6
2019-05-21T05:29:08.610Z,80.9
2019-05-21T05:30:10.483Z,79
2019-05-21T05:31:16.210Z,77.2
2019-05-21T05:32:18.085Z,78.5
2019-05-21T05:33:19.955Z,79.4
2019-05-21T05:34:21.826Z,83.3
2019-05-21T05:35:23.697Z,79.4
2019-05-21T05:36:25.568Z,82.4
2019-05-21T05:37:46.475Z,82.6
2019-05-21T05:38:50.684Z,85.8
2019-05-21T05:39:52.553Z,81.1
2019-05-21T05:40:54.147Z,85.2
2019-05-21T05:41:56.024Z,87.5
2019-05-21T05:42:57.616Z,79.2
2019-05-21T05:43:59.225Z,79.1
2019-05-21T05:45:01.122Z,83.4
2019-05-21T05:46:02.991Z,81.1
2019-05-21T05:47:04.863Z,85.1
2019-05-21T05:48:06.460Z,86.5
2019-05-21T05:49:08.333Z,88.5
2019-05-21T05:50:09.919Z,88.2
2019-05-21T05:51:11.792Z,86.8
2019-05-21T05:52:13.386Z,83.4
2019-05-21T05:53:14.967Z,84
2019-05-21T05:54:16.836Z,80.4
2019-05-21T05:55:18.706Z,81.2
2019-05-21T05:56:20.581Z,76
2019-05-21T05:57:22.465Z,75.1
2019-05-21T05:58:24.419Z,81.6
2019-05-21T05:59:26.187Z,80.7
2019-05-21T06:00:28.056Z,84.1
2019-05-21T06:01:29.956Z,83.7
2019-05-21T06:02:31.830Z,86.7
2019-05-21T06:03:33.703Z,85.6
2019-05-21T06:04:35.578Z,86.4
2019-05-21T06:05:37.448Z,82.2
2019-05-21T06:06:39.362Z,80
2019-05-21T06:07:41.238Z,71.6
2019-05-21T06:08:43.142Z,80.1
2019-05-21T06:09:45.020Z,82.2
2019-05-21T06:10:46.893Z,77.6
2019-05-21T06:11:48.763Z,79.1
2019-05-21T06:12:50.709Z,80.6
2019-05-21T06:13:52.345Z,76.6
2019-05-21T06:14:53.931Z,78.4
2019-05-21T06:15:55.845Z,80
2019-05-21T06:16:57.718Z,76.1
2019-05-21T06:17:59.593Z,76.7
2019-05-21T06:19:01.465Z,80.5
2019-05-21T06:20:03.337Z,80.1
2019-05-21T06:21:05.205Z,81.1
2019-05-21T06:22:07.079Z,76.8
2019-05-21T06:23:08.947Z,71.5
2019-05-21T06:24:14.419Z,73.5
2019-05-21T06:25:16.305Z,71.9
2019-05-21T06:26:17.894Z,70.9
2019-05-21T06:27:19.773Z,77.8
2019-05-21T06:28:21.368Z,73.5
2019-05-21T06:29:23.238Z,68.1
2019-05-21T06:30:24.834Z,66.7
2019-05-21T06:31:26.708Z,72.6
2019-05-21T06:32:28.585Z,70.3
2019-05-21T06:33:30.453Z,73.8
2019-05-21T06:34:32.323Z,70.8
2019-05-21T06:35:34.195Z,70.6
2019-05-21T06:36:36.068Z,69.5
2019-05-21T06:37:37.951Z,69.1
2019-05-21T06:38:39.993Z,70.6
2019-05-21T06:39:41.864Z,65.1
2019-05-21T06:40:43.734Z,60.2
2019-05-21T06:41:45.612Z,62.9
2019-05-21T06:42:47.486Z,68.2
2019-05-21T06:43:49.364Z,69
2019-05-21T06:44:51.005Z,66
2019-05-21T06:45:52.879Z,65
2019-05-21T06:46:54.481Z,64.9
2019-05-21T06:47:56.355Z,64.4
2019-05-21T06:48:57.949Z,62.2
2019-05-21T06:49:59.294Z,63
2019-05-21T06:51:01.161Z,64.8
2019-05-21T06:52:03.034Z,63.3
2019-05-21T06:53:04.915Z,61.3
2019-05-21T06:54:06.511Z,57.6
2019-05-21T06:55:08.104Z,59.6
2019-05-21T06:56:09.982Z,60.2
2019-05-21T06:57:11.885Z,60.9
2019-05-21T06:58:13.478Z,67.6
2019-05-21T06:59:15.352Z,62
2019-05-21T07:00:16.956Z,58.1
2019-05-21T07:01:26.334Z,58.3
2019-05-21T07:02:31.278Z,56.8
2019-05-21T07:03:33.155Z,57
2019-05-21T07:04:35.019Z,58.4
2019-05-21T07:05:36.891Z,58.5
2019-05-21T07:06:38.764Z,59.3
2019-05-21T07:07:40.637Z,61.5
2019-05-21T07:08:42.510Z,60.3
2019-05-21T07:09:44.403Z,56.5
2019-05-21T07:10:46.272Z,56.8
2019-05-21T07:11:50.445Z,58.6
2019-05-21T07:12:52.040Z,54.6
2019-05-21T07:13:53.928Z,56.6
2019-05-21T07:14:55.827Z,53
2019-05-21T07:15:57.703Z,50.7
2019-05-21T07:16:59.576Z,48.6
2019-05-21T07:18:01.447Z,51.8
2019-05-21T07:19:03.343Z,49.7
2019-05-21T07:20:05.243Z,52.4
2019-05-21T07:21:07.119Z,51.6
2019-05-21T07:22:14.141Z,47.2
2019-05-21T07:23:16.011Z,45.4
2019-05-21T07:24:17.883Z,43.5
2019-05-21T07:25:19.774Z,47.7
2019-05-21T07:26:21.798Z,44.7
2019-05-21T07:27:23.666Z,44.5
2019-05-21T07:28:25.539Z,47.1
2019-05-21T07:29:27.408Z,47.5
2019-05-21T07:30:29.279Z,45.6
2019-05-21T07:31:31.147Z,44.9
2019-05-21T07:32:33.019Z,43.6
2019-05-21T07:33:34.607Z,43.2
2019-05-21T07:34:36.483Z,44.8
2019-05-21T07:35:38.354Z,41.4
2019-05-21T07:36:40.221Z,44.6
2019-05-21T07:37:42.089Z,40.3
2019-05-21T07:38:54.966Z,41.1
2019-05-21T07:39:56.545Z,41.7
2019-05-21T07:40:58.239Z,41.5
2019-05-21T07:42:00.209Z,44.7
2019-05-21T07:43:01.522Z,44.7
2019-05-21T07:44:03.389Z,41.6
2019-05-21T07:45:04.693Z,41.5
2019-05-21T07:46:06.563Z,42.1
2019-05-21T07:47:08.433Z,42.1
2019-05-21T07:48:10.302Z,39.8
2019-05-21T07:49:12.173Z,41.9
2019-05-21T07:50:14.050Z,40.6
2019-05-21T07:51:15.925Z,37.5
2019-05-21T07:52:17.793Z,40.4
2019-05-21T07:53:19.666Z,41.1
2019-05-21T07:54:21.538Z,40.5
2019-05-21T07:55:23.408Z,40.9
2019-05-21T07:56:24.993Z,41
2019-05-21T07:57:26.869Z,39.7
2019-05-21T07:58:28.739Z,42.7
2019-05-21T07:59:30.611Z,43.2
2019-05-21T08:00:32.483Z,45.1
2019-05-21T08:01:34.352Z,43.5
2019-05-21T08:02:36.227Z,40.3
2019-05-21T08:03:38.096Z,41.2
2019-05-21T08:04:39.967Z,40.7
2019-05-21T08:05:41.846Z,38.7
2019-05-21T08:06:44.151Z,40.2
2019-05-21T08:07:46.126Z,43.6
2019-05-21T08:08:48.001Z,41.8
2019-05-21T08:09:49.884Z,42
2019-05-21T08:10:51.779Z,44.2
2019-05-21T08:11:53.366Z,42.9
2019-05-21T08:12:55.241Z,45.6
2019-05-21T08:13:56.847Z,44
2019-05-21T08:14:58.719Z,38.6
2019-05-21T08:16:00.599Z,37.6
2019-05-21T08:17:02.180Z,39.6
2019-05-21T08:18:04.047Z,36.7
2019-05-21T08:19:05.919Z,35.5
2019-05-21T08:20:11.638Z,36.6
2019-05-21T08:21:13.208Z,36.6
2019-05-21T08:22:14.808Z,38.5
2019-05-21T08:23:16.394Z,40.3
2019-05-21T08:24:17.988Z,36.9
2019-05-21T08:25:19.859Z,36.9
2019-05-21T08:26:21.451Z,37.3
2019-05-21T08:27:23.049Z,36.4
2019-05-21T08:28:24.643Z,36.6
2019-05-21T08:29:26.510Z,36.5
2019-05-21T08:30:28.395Z,36.5
2019-05-21T08:31:30.257Z,39.1
2019-05-21T08:32:32.125Z,39.5
2019-05-21T08:33:34.004Z,37.8
2019-05-21T08:34:35.886Z,37.1
2019-05-21T08:35:37.773Z,36.8
2019-05-21T08:36:39.682Z,35.3
2019-05-21T08:37:41.553Z,35.8
2019-05-21T08:38:43.425Z,35.2
2019-05-21T08:39:45.295Z,35.9
2019-05-21T08:40:47.167Z,34.4
2019-05-21T08:41:49.040Z,36
2019-05-21T08:42:50.635Z,34.2
2019-05-21T08:43:52.280Z,36.4
2019-05-21T08:44:54.153Z,36.7
2019-05-21T08:45:56.029Z,37.1
2019-05-21T08:46:57.341Z,36.7
2019-05-21T08:47:59.203Z,36.7
2019-05-21T08:49:01.071Z,35.1
2019-05-21T08:50:02.945Z,36.6
2019-05-21T08:51:04.809Z,36.7
2019-05-21T08:52:06.440Z,40.9
2019-05-21T08:53:08.307Z,43.1
2019-05-21T08:54:10.177Z,40.7
2019-05-21T08:55:12.050Z,39.3
2019-05-21T08:56:13.922Z,36.4
2019-05-21T08:57:15.795Z,38.5
2019-05-21T08:58:17.678Z,40.5
2019-05-21T08:59:19.545Z,37.3
2019-05-21T09:00:21.422Z,37.3
2019-05-21T09:01:23.009Z,39.2
2019-05-21T09:02:24.912Z,38.1
2019-05-21T09:03:26.782Z,37.8
2019-05-21T09:06:44.453Z,39.5
2019-05-21T09:07:52.215Z,37.7
2019-05-21T09:08:55.060Z,35.3
2019-05-21T09:09:56.655Z,35.7
2019-05-21T09:10:58.525Z,38.1
2019-05-21T09:12:00.444Z,39.6
2019-05-21T09:13:02.331Z,37.6
2019-05-21T09:14:04.208Z,38.9
2019-05-21T09:15:05.862Z,37.6
2019-05-21T09:16:07.473Z,37.8
2019-05-21T09:17:09.331Z,38.1
2019-05-21T09:18:11.201Z,36.8
2019-05-21T09:19:12.786Z,40
2019-05-21T09:20:14.660Z,39.8
2019-05-21T09:21:16.560Z,39.8
2019-05-21T09:22:18.430Z,40.2
2019-05-21T09:23:20.318Z,39.5
2019-05-21T09:24:22.200Z,38.8
2019-05-21T09:25:23.783Z,36.4
2019-05-21T09:26:25.367Z,35.5
2019-05-21T09:27:27.238Z,36.3
2019-05-21T09:28:29.113Z,40.1
2019-05-21T09:29:30.737Z,37.4
2019-05-21T09:30:32.589Z,39
2019-05-21T09:31:34.460Z,38.4
2019-05-21T09:32:36.069Z,36
2019-05-21T09:33:37.664Z,34.4
2019-05-21T09:34:49.827Z,36.1
2019-05-21T09:35:51.416Z,36.3
2019-05-21T09:36:53.293Z,35.2
2019-05-21T09:37:55.162Z,36.4
2019-05-21T09:38:56.765Z,35.3
2019-05-21T09:39:58.636Z,34.7
2019-05-21T09:41:00.518Z,35.1
2019-05-21T09:42:02.543Z,35.4
2019-05-21T09:43:04.416Z,33.6
2019-05-21T09:44:06.327Z,33.9
2019-05-21T09:45:08.269Z,36
2019-05-21T09:46:09.900Z,36.5
2019-05-21T09:47:11.782Z,34.5
2019-05-21T09:48:13.658Z,34
2019-05-21T09:49:15.573Z,35
2019-05-21T09:50:17.444Z,36.1
2019-05-21T09:51:21.288Z,34.7
2019-05-21T09:52:22.883Z,36.3
2019-05-21T09:53:24.756Z,35.2
2019-05-21T09:54:26.625Z,36.7
2019-05-21T09:55:28.499Z,36.7
2019-05-21T09:56:30.429Z,36.8
2019-05-21T09:57:32.300Z,33.3
2019-05-21T09:58:34.176Z,35
2019-05-21T09:59:36.094Z,37
2019-05-21T10:00:38.050Z,34.8
2019-05-21T10:01:39.983Z,35.1
2019-05-21T10:02:41.853Z,35.8
2019-05-21T10:03:44.049Z,37
2019-05-21T10:04:46.162Z,37
2019-05-21T10:05:48.038Z,38.3
2019-05-21T10:06:49.912Z,34.4
2019-05-21T10:07:51.786Z,33.9
2019-05-21T10:08:53.665Z,35.4
2019-05-21T10:09:55.539Z,36.1
2019-05-21T10:10:56.861Z,34.1
2019-05-21T10:11:58.798Z,34.1
2019-05-21T10:13:00.676Z,32.3
2019-05-21T10:14:02.623Z,34
2019-05-21T10:15:04.520Z,32.5
2019-05-21T10:16:06.433Z,33.5
2019-05-21T10:17:08.305Z,32.6
2019-05-21T10:18:10.178Z,30.4
2019-05-21T10:19:12.049Z,31
2019-05-21T10:20:13.923Z,32.1
2019-05-21T10:21:15.517Z,33.6
2019-05-21T10:22:17.389Z,32.1
2019-05-21T10:23:18.985Z,31.8
2019-05-21T10:24:20.859Z,32.5
2019-05-21T10:25:22.731Z,30.8
2019-05-21T10:26:24.598Z,30.6
2019-05-21T10:27:26.494Z,31
2019-05-21T10:28:28.379Z,30.6
2019-05-21T10:29:30.249Z,33.7
2019-05-21T10:30:32.109Z,34.6
2019-05-21T10:31:33.989Z,31.9
2019-05-21T10:32:35.862Z,33.6
2019-05-21T10:33:37.735Z,33.2
2019-05-21T10:34:39.609Z,31.6
2019-05-21T10:35:41.475Z,31.7
2019-05-21T10:36:43.346Z,31
2019-05-21T10:37:56.134Z,30.3
2019-05-21T10:38:58.014Z,31.9
2019-05-21T10:39:59.894Z,31.9
2019-05-21T10:41:01.834Z,32.6
2019-05-21T10:42:03.743Z,32.8
2019-05-21T10:43:05.614Z,31.5
2019-05-21T10:44:07.216Z,31.3
2019-05-21T10:45:09.070Z,32
2019-05-21T10:46:10.665Z,30.7
2019-05-21T10:47:17.177Z,31.5
2019-05-21T10:48:19.042Z,33.2
2019-05-21T10:49:21.018Z,32.8
2019-05-21T10:50:22.322Z,32.5
2019-05-21T10:51:24.198Z,34
2019-05-21T10:52:26.077Z,34.6
2019-05-21T10:53:28.171Z,35.5
2019-05-21T10:54:30.036Z,35.8
2019-05-21T10:55:31.955Z,33.6
2019-05-21T10:56:49.196Z,34.9
2019-05-21T10:57:51.066Z,33.9
2019-05-21T10:58:52.951Z,32.9
2019-05-21T10:59:54.861Z,35.7
2019-05-21T11:00:56.735Z,34.8
2019-05-21T11:01:58.610Z,34.1
2019-05-21T11:03:00.524Z,34.7
2019-05-21T11:04:02.394Z,33.5
2019-05-21T11:05:04.259Z,34
2019-05-21T11:06:11.432Z,33.2
2019-05-21T11:07:13.298Z,31
2019-05-21T11:08:25.852Z,32.4
2019-05-21T11:09:27.465Z,30.4
2019-05-21T11:10:29.460Z,30.7
2019-05-21T11:11:31.357Z,34.4
2019-05-21T11:12:32.940Z,32.7
2019-05-21T11:13:34.852Z,31.3
2019-05-21T11:14:36.745Z,30.5
2019-05-21T11:15:38.427Z,30.3
2019-05-21T11:16:40.278Z,29.6
2019-05-21T11:18:11.980Z,29.6
2019-05-21T11:19:13.813Z,30.1
2019-05-21T11:20:15.680Z,30.1
2019-05-21T11:21:17.584Z,32.1
2019-05-21T11:22:19.181Z,30.4
2019-05-21T11:23:21.055Z,30.3
2019-05-21T11:24:22.635Z,30.9
2019-05-21T11:25:24.508Z,31.2
2019-05-21T11:26:26.393Z,32.5
2019-05-21T11:27:28.262Z,30.7
2019-05-21T11:28:30.143Z,31.7
2019-05-21T11:29:32.016Z,31.2
2019-05-21T11:30:33.959Z,32.6
2019-05-21T11:31:35.568Z,33
2019-05-21T11:32:37.439Z,30.8
2019-05-21T11:33:39.314Z,31
2019-05-21T11:34:40.910Z,31.3
2019-05-21T11:35:42.791Z,30.3
2019-05-21T11:36:44.678Z,31.8
2019-05-21T11:37:48.980Z,30.1
2019-05-21T11:38:50.871Z,30.1
2019-05-21T11:39:52.472Z,30.4
2019-05-21T11:40:54.342Z,30.1
2019-05-21T11:41:56.227Z,30
2019-05-21T11:42:58.097Z,29.6
2019-05-21T11:43:59.978Z,30.5
2019-05-21T11:45:01.844Z,30.3
2019-05-21T11:46:04.297Z,31.2
2019-05-21T11:47:06.167Z,32.3
2019-05-21T11:48:08.060Z,32
2019-05-21T11:49:09.931Z,31
2019-05-21T11:50:11.803Z,30.6
2019-05-21T11:51:13.992Z,30.4
2019-05-21T11:52:15.867Z,30.3
2019-05-21T11:53:17.739Z,29.4
2019-05-21T11:54:19.618Z,29.1
2019-05-21T11:55:21.487Z,31.7
2019-05-21T11:56:23.083Z,30.6
2019-05-21T11:57:24.951Z,30.1
2019-05-21T11:58:26.822Z,29.9
2019-05-21T11:59:28.693Z,30.1
2019-05-21T12:00:30.564Z,29.6
2019-05-21T12:01:32.448Z,30.3
2019-05-21T12:02:34.325Z,30.9
2019-05-21T12:03:35.903Z,31.1
2019-05-21T12:04:37.777Z,29.2
2019-05-21T12:05:39.655Z,29.4
2019-05-21T12:06:41.273Z,28.4
2019-05-21T12:07:42.852Z,30.1
2019-05-21T12:08:58.002Z,28
2019-05-21T12:09:59.874Z,28.9
2019-05-21T12:11:01.755Z,29.9
2019-05-21T12:12:03.633Z,28.2
2019-05-21T12:13:05.497Z,28.3
2019-05-21T12:14:07.367Z,28.6
2019-05-21T12:15:08.983Z,27.3
2019-05-21T12:16:10.968Z,27.5
2019-05-21T12:17:12.863Z,26.7
2019-05-21T12:18:14.747Z,29
2019-05-21T12:19:16.624Z,29.2
2019-05-21T12:20:37.970Z,26.9
2019-05-21T12:21:39.583Z,26.7
2019-05-21T12:22:41.458Z,28.4
2019-05-21T12:23:43.326Z,28.4
2019-05-21T12:24:45.223Z,30.8
2019-05-21T12:25:46.806Z,27.7
2019-05-21T12:26:48.408Z,26
2019-05-21T12:27:50.278Z,27.6
2019-05-21T12:28:52.294Z,29.5
2019-05-21T12:29:54.163Z,26.4
2019-05-21T12:30:56.035Z,26.4
2019-05-21T12:31:57.912Z,27.1
2019-05-21T12:32:59.784Z,24.9
2019-05-21T12:34:01.659Z,25.6
2019-05-21T12:35:03.622Z,23.3
2019-05-21T12:36:05.495Z,26.1
2019-05-21T12:37:07.365Z,24.1
2019-05-21T12:38:09.270Z,25.4
2019-05-21T12:39:15.667Z,25
2019-05-21T12:40:17.564Z,25.8
2019-05-21T12:41:19.444Z,25.4
2019-05-21T12:42:21.321Z,25.2
2019-05-21T12:43:23.197Z,24.9
2019-05-21T12:44:25.074Z,25.8
2019-05-21T12:45:26.950Z,25.4
2019-05-21T12:46:28.819Z,26.1
2019-05-21T12:47:30.415Z,26.6
2019-05-21T12:48:32.288Z,27.2
2019-05-21T12:49:34.159Z,26.4
2019-05-21T12:50:36.030Z,25.4
2019-05-21T12:51:37.911Z,25.4
2019-05-21T12:52:39.831Z,25.6
2019-05-21T12:53:41.706Z,26.2
2019-05-21T12:54:43.587Z,24.6
2019-05-21T12:55:45.465Z,23.1
2019-05-21T12:56:47.329Z,22.5
2019-05-21T12:57:49.201Z,22.3
2019-05-21T12:58:51.071Z,23.5
2019-05-21T12:59:52.944Z,22.8
2019-05-21T13:00:54.813Z,22.1
2019-05-21T13:01:56.682Z,21.2
2019-05-21T13:02:58.559Z,20.9
2019-05-21T13:04:00.425Z,22.1
2019-05-21T13:05:02.300Z,21.5
2019-05-21T13:06:04.113Z,21.7
2019-05-21T13:07:05.707Z,22
2019-05-21T13:08:07.604Z,21.5
2019-05-21T13:09:09.288Z,20
2019-05-21T13:10:10.887Z,20.8
2019-05-21T13:11:12.756Z,20.2
2019-05-21T13:12:14.631Z,19.7
2019-05-21T13:13:16.500Z,20
2019-05-21T13:14:19.658Z,20.4
2019-05-21T13:15:21.527Z,20.4
2019-05-21T13:16:23.425Z,18.9
2019-05-21T13:17:25.302Z,18.9
2019-05-21T13:18:27.176Z,19.6
2019-05-21T13:19:29.078Z,19.4
2019-05-21T13:20:30.955Z,18.8
2019-05-21T13:21:32.904Z,19.8
2019-05-21T13:22:34.557Z,18.5
2019-05-21T13:23:36.441Z,18.1
2019-05-21T13:24:38.040Z,18.5
2019-05-21T13:25:39.937Z,17.6
2019-05-21T13:26:41.810Z,18.3
2019-05-21T13:27:43.422Z,18.4
2019-05-21T13:28:45.324Z,17.1
2019-05-21T13:29:47.028Z,16.6
2019-05-21T13:30:48.628Z,17.7
2019-05-21T13:31:50.713Z,17.2
2019-05-21T13:32:52.580Z,17.6
2019-05-21T13:33:54.175Z,18.2
2019-05-21T13:34:56.042Z,17.6
2019-05-21T13:35:57.926Z,16.6
2019-05-21T13:36:59.798Z,18.1
2019-05-21T13:38:01.774Z,16.5
2019-05-21T13:39:03.371Z,18.1
2019-05-21T13:40:04.965Z,17
2019-05-21T13:41:06.558Z,17.1
2019-05-21T13:42:07.960Z,17.3
2019-05-21T13:43:09.835Z,17.9
2019-05-21T13:44:11.702Z,18.1
2019-05-21T13:45:13.573Z,17.4
2019-05-21T13:46:15.589Z,16.7
2019-05-21T13:47:17.457Z,17.4
2019-05-21T13:48:19.352Z,18.6
2019-05-21T13:49:21.215Z,18.2
2019-05-21T13:50:23.170Z,17.8
2019-05-21T13:51:25.031Z,17.4
2019-05-21T13:52:26.901Z,17.9
2019-05-21T13:53:28.771Z,18.1
2019-05-21T13:54:30.647Z,19.5
2019-05-21T13:55:35.021Z,18.4
2019-05-21T13:56:36.886Z,18
2019-05-21T13:57:38.759Z,18.7
2019-05-21T13:58:40.631Z,18.3
2019-05-21T13:59:42.530Z,19.2
2019-05-21T14:00:44.412Z,18.4
2019-05-21T14:01:46.378Z,18.4
2019-05-21T14:02:48.248Z,19
2019-05-21T14:03:50.122Z,18.4
2019-05-21T14:04:52.012Z,18.6
2019-05-21T14:05:53.622Z,17.7
2019-05-21T14:06:56.090Z,17.6
2019-05-21T14:07:58.069Z,17.6
2019-05-21T14:09:00.019Z,18.2
2019-05-21T14:10:22.052Z,18.9
2019-05-21T14:11:23.669Z,18.4
2019-05-21T14:12:25.541Z,18
2019-05-21T14:13:27.424Z,18.4
2019-05-21T14:14:29.307Z,18
2019-05-21T14:15:31.178Z,18
2019-05-21T14:16:35.796Z,17.1
2019-05-21T14:17:37.762Z,17
2019-05-21T14:18:39.944Z,16.8
2019-05-21T14:19:41.562Z,16.6
2019-05-21T14:20:43.428Z,17
2019-05-21T14:21:45.301Z,16.7
2019-05-21T14:22:47.173Z,17.1
2019-05-21T14:23:49.063Z,17.2
2019-05-21T14:24:50.925Z,16.3
2019-05-21T14:25:52.808Z,16.8
2019-05-21T14:26:54.686Z,17.6
2019-05-21T14:27:56.556Z,17
2019-05-21T14:28:58.429Z,16.2
2019-05-21T14:30:00.303Z,16.4
2019-05-21T14:31:02.188Z,16.6
2019-05-21T14:32:04.077Z,16.4
2019-05-21T14:33:05.957Z,16.6
2019-05-21T14:34:07.869Z,16.8
2019-05-21T14:35:09.741Z,17.3
2019-05-21T14:36:11.831Z,17
2019-05-21T14:37:13.427Z,16.7
2019-05-21T14:38:15.299Z,16.9
2019-05-21T14:39:17.172Z,16.8
2019-05-21T14:40:33.097Z,16
2019-05-21T14:41:34.704Z,15.8
2019-05-21T14:42:36.297Z,16.3
2019-05-21T14:43:38.166Z,16.7
2019-05-21T14:44:40.057Z,16.9
2019-05-21T14:45:41.931Z,17.7
2019-05-21T14:46:43.269Z,16.8
2019-05-21T14:47:44.575Z,17.7
2019-05-21T14:48:46.443Z,18
2019-05-21T14:49:48.323Z,18.4
2019-05-21T14:50:50.206Z,17.6
2019-05-21T14:51:51.513Z,16.2
2019-05-21T14:52:53.507Z,16.5
2019-05-21T14:53:55.102Z,17.4
2019-05-21T14:54:57.096Z,17.8
2019-05-21T14:55:58.968Z,16.9
2019-05-21T14:57:00.844Z,17.8
2019-05-21T14:58:02.714Z,16.7
2019-05-21T14:59:04.591Z,17.2
2019-05-21T15:00:06.456Z,17.2
2019-05-21T15:01:08.330Z,18.3
2019-05-21T15:02:10.204Z,17.5
2019-05-21T15:03:29.288Z,17.9
2019-05-21T15:04:32.211Z,17.3
2019-05-21T15:05:34.466Z,17.7
2019-05-21T15:06:36.401Z,17.5
2019-05-21T15:07:38.293Z,18.4
2019-05-21T15:08:40.206Z,18.8
2019-05-21T15:09:42.106Z,19.1
2019-05-21T15:10:50.303Z,18.8
2019-05-21T15:11:51.887Z,19.8
2019-05-21T15:12:53.763Z,18.6
2019-05-21T15:13:55.071Z,19.5
2019-05-21T15:14:56.948Z,19.4
2019-05-21T15:15:58.820Z,20.3
2019-05-21T15:17:00.692Z,20.8
2019-05-21T15:18:02.331Z,20.2
2019-05-21T15:19:04.369Z,20.7
2019-05-21T15:20:06.256Z,20.3
2019-05-21T15:21:08.369Z,21.7
2019-05-21T15:22:10.028Z,21.2
2019-05-21T15:23:11.903Z,21.7
2019-05-21T15:24:14.595Z,20.5
2019-05-21T15:25:16.760Z,21.1
2019-05-21T15:26:18.689Z,21.8
2019-05-21T15:27:20.281Z,21.1
2019-05-21T15:28:22.182Z,20.4
2019-05-21T15:29:23.781Z,20.5
2019-05-21T15:30:25.653Z,21.2
2019-05-21T15:31:27.556Z,20.2
2019-05-21T15:32:31.452Z,21.3
2019-05-21T15:33:33.072Z,20.5
2019-05-21T15:34:34.944Z,20.8
2019-05-21T15:35:36.836Z,20.6
2019-05-21T15:36:38.706Z,20.6
2019-05-21T15:37:44.302Z,19.7
2019-05-21T15:38:51.993Z,20.7
2019-05-21T15:39:53.872Z,20.2
2019-05-21T15:41:13.236Z,20.6
2019-05-21T15:42:14.844Z,20.8
2019-05-21T15:43:16.729Z,21
2019-05-21T15:44:18.604Z,20.9
2019-05-21T15:45:20.486Z,20.3
2019-05-21T15:46:22.358Z,20.5
2019-05-21T15:47:24.234Z,21.9
2019-05-21T15:48:27.796Z,22.1
2019-05-21T15:49:37.840Z,24.2
2019-05-21T15:50:39.712Z,25.3
2019-05-21T15:51:41.589Z,26
2019-05-21T15:52:43.184Z,26.4
2019-05-21T15:53:45.057Z,26.6
2019-05-21T15:55:06.193Z,28.4
2019-05-21T15:56:09.062Z,26.1
2019-05-21T15:57:11.807Z,26.6
2019-05-21T15:58:13.497Z,25.6
2019-05-21T15:59:15.364Z,26.9
2019-05-21T16:00:17.234Z,27.4
2019-05-21T16:01:18.838Z,27.2
2019-05-21T16:02:20.741Z,26.6
2019-05-21T16:03:22.622Z,27.6
2019-05-21T16:04:24.215Z,27.3
2019-05-21T16:05:26.074Z,27.1
2019-05-21T16:06:27.960Z,27.7
2019-05-21T16:07:29.548Z,26.3
2019-05-21T16:08:31.432Z,25.4
2019-05-21T16:09:33.023Z,27.7
2019-05-21T16:10:34.896Z,27.7
2019-05-21T16:11:36.767Z,26.8
2019-05-21T16:12:38.636Z,25.9
2019-05-21T16:13:40.286Z,26.1
2019-05-21T16:14:41.899Z,25
2019-05-21T16:15:43.776Z,25.7
2019-05-21T16:16:45.653Z,25.1
2019-05-21T16:17:47.521Z,26.2
2019-05-21T16:18:49.394Z,24.8
2019-05-21T16:19:51.270Z,25.2
2019-05-21T16:20:53.139Z,26.6
2019-05-21T16:21:55.010Z,26.5
2019-05-21T16:22:57.043Z,25.2
2019-05-21T16:23:58.894Z,24.9
2019-05-21T16:25:00.815Z,24.4
2019-05-21T16:26:02.362Z,25.1
2019-05-21T16:27:04.241Z,25.8
2019-05-21T16:28:06.108Z,26.6
2019-05-21T16:29:07.979Z,24.6
2019-05-21T16:30:09.849Z,25
2019-05-21T16:31:11.723Z,24.7
2019-05-21T16:32:13.598Z,24.7
2019-05-21T16:33:15.513Z,24.6
2019-05-21T16:34:17.363Z,26
2019-05-21T16:35:19.239Z,25.6
2019-05-21T16:36:21.148Z,25.1
2019-05-21T16:37:22.773Z,25.3
2019-05-21T16:38:24.365Z,24.6
2019-05-21T16:39:26.269Z,26.1
2019-05-21T16:40:28.147Z,25.7
2019-05-21T16:41:46.034Z,26.2
2019-05-21T16:42:47.903Z,26.7
2019-05-21T16:43:49.777Z,25.8
2019-05-21T16:44:51.647Z,27.8
2019-05-21T16:45:53.524Z,27.1
2019-05-21T16:46:55.457Z,26.3
2019-05-21T16:47:57.322Z,25.8
2019-05-21T16:48:59.192Z,26.4
2019-05-21T16:50:01.063Z,27.4
2019-05-21T16:51:02.906Z,25.9
2019-05-21T16:52:04.542Z,27.7
2019-05-21T16:53:06.411Z,26.5
2019-05-21T16:54:08.281Z,27.2
2019-05-21T16:55:10.150Z,27.4
2019-05-21T16:56:12.025Z,28.4
2019-05-21T16:57:14.048Z,28.6
2019-05-21T16:58:15.653Z,28.4
2019-05-21T16:59:17.545Z,28.5
2019-05-21T17:00:19.129Z,28
2019-05-21T17:01:21.001Z,27.5
2019-05-21T17:02:22.874Z,28.7
2019-05-21T17:03:24.851Z,28.8
2019-05-21T17:04:26.443Z,29.2
2019-05-21T17:05:28.314Z,28.6
2019-05-21T17:06:30.330Z,29.2
2019-05-21T17:07:31.916Z,28.8
2019-05-21T17:08:33.795Z,28.8
2019-05-21T17:09:35.670Z,28.3
2019-05-21T17:10:37.538Z,28.6
2019-05-21T17:11:39.410Z,29
2019-05-21T17:12:41.281Z,29.5
2019-05-21T17:13:43.154Z,28.7
2019-05-21T17:14:45.025Z,28.8
2019-05-21T17:15:46.896Z,28.6
2019-05-21T17:16:48.473Z,30.5
2019-05-21T17:17:50.346Z,28.8
2019-05-21T17:18:52.219Z,30.2
2019-05-21T17:19:54.117Z,30.3
2019-05-21T17:20:56.015Z,30.3
2019-05-21T17:21:57.883Z,30.5
2019-05-21T17:22:59.754Z,31.4
2019-05-21T17:24:01.625Z,30.7
2019-05-21T17:25:03.497Z,29.5
2019-05-21T17:26:05.375Z,30.6
2019-05-21T17:27:06.970Z,32.2
2019-05-21T17:28:08.838Z,29.5
2019-05-21T17:29:10.707Z,30.1
2019-05-21T17:30:12.581Z,29.8
2019-05-21T17:31:14.190Z,30.3
2019-05-21T17:32:16.083Z,29.6
2019-05-21T17:33:17.689Z,30
2019-05-21T17:34:19.561Z,29.3
2019-05-21T17:35:21.436Z,31.3
2019-05-21T17:36:23.306Z,31
2019-05-21T17:37:25.179Z,29.9
2019-05-21T17:38:27.057Z,30.7
2019-05-21T17:39:28.928Z,30
2019-05-21T17:40:30.802Z,29.9
2019-05-21T17:41:32.670Z,29.9
2019-05-21T17:42:34.570Z,31.1
2019-05-21T17:43:36.465Z,29.7
2019-05-21T17:44:38.345Z,30.5
2019-05-21T17:45:40.217Z,29.6
2019-05-21T17:46:42.097Z,29.6
2019-05-21T17:47:43.964Z,30.1
2019-05-21T17:48:45.836Z,30.6
2019-05-21T17:49:47.705Z,31.2
2019-05-21T17:50:49.577Z,29.4
2019-05-21T17:51:51.447Z,30.5
2019-05-21T17:52:53.326Z,29.2
2019-05-21T17:53:55.230Z,30.6
2019-05-21T17:54:58.263Z,30.2
2019-05-21T17:56:00.131Z,30.6
2019-05-21T17:57:02.003Z,30.8
2019-05-21T17:58:03.875Z,30.6
2019-05-21T17:59:05.751Z,31.8
2019-05-21T18:00:07.398Z,31
2019-05-21T18:01:09.284Z,32.2
2019-05-21T18:02:11.141Z,31.3
2019-05-21T18:03:13.010Z,29.8
2019-05-21T18:04:14.877Z,29.5
2019-05-21T18:05:16.484Z,30.7
2019-05-21T18:06:17.787Z,30.7
2019-05-21T18:07:19.926Z,29.7
2019-05-21T18:08:21.797Z,28.9
2019-05-21T18:09:23.674Z,29.7
2019-05-21T18:10:25.536Z,28.8
2019-05-21T18:11:27.407Z,30.6
2019-05-21T18:12:33.222Z,29
2019-05-21T18:13:34.815Z,28.8
2019-05-21T18:14:36.685Z,30
2019-05-21T18:15:38.557Z,30.8
2019-05-21T18:16:40.429Z,30.1
2019-05-21T18:17:42.303Z,30.3
2019-05-21T18:18:44.171Z,29.9
2019-05-21T18:19:46.051Z,29.7
2019-05-21T18:20:47.920Z,30.3
2019-05-21T18:21:49.221Z,29.9
2019-05-21T18:22:51.091Z,32
2019-05-21T18:23:53.213Z,30.7
2019-05-21T18:24:55.084Z,32.6
2019-05-21T18:25:56.956Z,31.1
2019-05-21T18:26:58.873Z,31
2019-05-21T18:28:00.812Z,31.3
2019-05-21T18:29:02.686Z,30.5
2019-05-21T18:30:05.085Z,29.9